Huvudsida
METAR-TAF:

METAR-TAF

Flygplatser :

London Oxford Airport

Oxford, England

latitud: 51-50-13N, longitud: 1-19-12W, höjd: 82 m

Aktuellt väderrapport

Denna rapport gjordes för 5 timmar och 29 minuter sedan, klockan 17:50 UTC
Vind 6 kt från nord
Temperatur 23°C
Fuktighet 41%
Tryck 1034 hPa
Sikt 10 km eller mer
Inga moln under 1 500 m eller inga cumulonimbus

METAR: EGTK 271750Z 36006KT CAVOK 23/09 Q1034

Tid: 00:19 (23:19 UTC)

Väderprognos

Denna rapport gjordes för 9 timmar och 19 minuter sedan, klockan 14:00 UTC
Prognos gäller från 27 kl. 15 UTC till 27 kl. 18 UTC
Vind 6 kt från nord
Sikt 10 km eller mer
Inga moln under 1 500 m eller inga cumulonimbus

TAF: EGTK 271400Z 2715/2718 36006KT CAVOK

Aktuella väderrapporter och prognoser från 4000 flygplatser (METAR- och TAF-rapporter).

De tillgängliga stationerna syns som gula och röda prickar på kartan.

För musen över prickarna för att se namnen på stationerna.

Klicka sedan för att få väderrapporter och prognoser.

För att ändra kartan: Klicka på de gröna knapparna med ett svart kors på för att zooma in; den gröna knappen med ett streck på för att zooma ut; eller på de gröna pilarna för angränsande kartor.


METAR-TAF: